Time;durP1;ratioP1;P1;durP2;ratioP2;P2;SDS_P1;SDS_P2;PMS_P1;PMS_P2;Temp;Humidity;BMP_temperature;BMP_pressure;BME280_temperature;BME280_humidity;BME280_pressure;Samples;Min_cycle;Max_cycle;Signal;HPM_P1;HPM_P2
2021/06/01 00:01:52;;;;;;;11.13;6.65;;;;;;;7.19;100.00;98228.13;5036617;28;20045;-81
2021/06/01 00:04:19;;;;;;;12.18;6.97;;;;;;;7.23;100.00;98231.88;5032669;28;20045;-80
2021/06/01 00:06:46;;;;;;;13.85;6.47;;;;;;;7.12;100.00;98227.66;5034670;28;20056;-81
2021/06/01 00:09:16;;;;;;;11.00;6.55;;;;;;;7.09;100.00;98225.50;5043001;28;20037;-80
2021/06/01 00:11:43;;;;;;;13.68;6.35;;;;;;;7.06;100.00;98233.31;5046394;28;20052;-80
2021/06/01 00:14:11;;;;;;;11.57;6.75;;;;;;;6.95;100.00;98237.13;5044399;28;20046;-80
2021/06/01 00:16:38;;;;;;;10.25;6.40;;;;;;;6.97;100.00;98232.31;5045956;28;20412;-82
2021/06/01 00:19:07;;;;;;;12.30;6.68;;;;;;;6.97;100.00;98227.69;5045964;28;20052;-80
2021/06/01 00:21:39;;;;;;;13.57;6.60;;;;;;;6.88;100.00;98232.06;5044770;28;20076;-79
2021/06/01 00:24:07;;;;;;;10.15;6.50;;;;;;;6.83;100.00;98230.19;5045549;28;20042;-80
2021/06/01 00:26:36;;;;;;;10.93;6.43;;;;;;;6.98;100.00;98215.84;5046507;28;20129;-81
2021/06/01 00:29:04;;;;;;;9.75;6.82;;;;;;;6.80;100.00;98238.00;5037289;28;20049;-81
2021/06/01 00:31:31;;;;;;;13.35;7.03;;;;;;;6.93;100.00;98237.41;5037136;28;20041;-81
2021/06/01 00:33:58;;;;;;;12.07;7.32;;;;;;;6.93;100.00;98225.84;5019417;28;20140;-80
2021/06/01 00:36:27;;;;;;;11.50;6.35;;;;;;;6.95;100.00;98229.06;5035378;28;20057;-80
2021/06/01 00:38:54;;;;;;;12.27;6.40;;;;;;;6.88;100.00;98232.88;5035013;28;20396;-81
2021/06/01 00:41:20;;;;;;;12.93;6.43;;;;;;;6.85;100.00;98229.91;5034810;28;20053;-80
2021/06/01 00:43:52;;;;;;;13.63;6.88;;;;;;;6.80;100.00;98225.38;5034018;28;20489;-80
2021/06/01 00:46:19;;;;;;;10.18;6.18;;;;;;;6.82;100.00;98230.47;5034675;28;20061;-80
2021/06/01 00:48:45;;;;;;;9.63;6.10;;;;;;;6.74;100.00;98231.03;5040141;28;20041;-80
2021/06/01 00:51:14;;;;;;;12.05;6.97;;;;;;;6.79;100.00;98220.25;5043118;28;20046;-81
2021/06/01 00:53:41;;;;;;;10.85;6.80;;;;;;;6.77;100.00;98227.78;5037081;28;20041;-81
2021/06/01 00:56:13;;;;;;;10.68;6.40;;;;;;;6.71;100.00;98228.91;5038606;28;20092;-80
2021/06/01 00:58:41;;;;;;;10.27;6.35;;;;;;;6.62;100.00;98209.84;5026431;28;20053;-81
2021/06/01 01:03:41;;;;;;;11.15;6.22;;;;;;;6.56;100.00;98219.00;5036561;28;20123;-80
2021/06/01 01:06:33;;;;;;;8.25;5.82;;;;;;;6.53;100.00;98216.06;5034837;28;20045;-81
2021/06/01 01:09:09;;;;;;;9.02;6.03;;;;;;;6.54;100.00;98218.47;5016785;28;20045;-81
2021/06/01 01:11:35;;;;;;;;;;;;;;;6.59;100.00;98223.84;5033934;28;20057;-80
2021/06/01 01:14:08;;;;;;;10.88;5.50;;;;;;;6.53;100.00;98221.44;5033670;28;19921;-80
2021/06/01 01:16:35;;;;;;;10.77;6.15;;;;;;;6.47;100.00;98212.59;5034872;28;20046;-81
2021/06/01 01:19:15;;;;;;;10.38;6.47;;;;;;;6.43;100.00;98221.44;5013372;28;20042;-80
2021/06/01 01:21:51;;;;;;;12.95;6.97;;;;;;;6.33;100.00;98216.09;5029927;28;20056;-80
2021/06/01 01:25:04;;;;;;;14.93;7.35;;;;;;;6.16;100.00;98222.63;5029757;28;20041;-80
2021/06/01 01:27:59;;;;;;;10.38;7.05;;;;;;;6.14;100.00;98227.44;5009943;28;20680;-81
2021/06/01 01:30:33;;;;;;;13.32;7.10;;;;;;;6.26;100.00;98224.47;5014890;28;20045;-80
2021/06/01 01:33:01;;;;;;;11.55;7.10;;;;;;;6.14;100.00;98222.06;5030352;28;20061;-80
2021/06/01 01:35:30;;;;;;;13.48;6.90;;;;;;;6.17;100.00;98213.47;5054827;23;20025;-76
2021/06/01 01:38:00;;;;;;;12.27;6.97;;;;;;;6.02;100.00;98226.94;5012369;28;20050;-77
2021/06/01 01:40:31;;;;;;;11.23;6.57;;;;;;;5.95;100.00;98214.84;5014200;28;20512;-78
2021/06/01 01:43:04;;;;;;;12.70;7.25;;;;;;;6.02;100.00;98215.38;5015133;28;20049;-78
2021/06/01 01:45:36;;;;;;;10.70;7.00;;;;;;;6.06;100.00;98209.19;5010872;28;20097;-78
2021/06/01 01:51:11;;;;;;;10.77;6.70;;;;;;;6.14;100.00;98216.69;4996801;28;20046;-79
2021/06/01 01:53:53;;;;;;;10.65;6.80;;;;;;;6.13;100.00;98212.41;4995087;28;20050;-79
2021/06/01 01:56:25;;;;;;;10.48;6.53;;;;;;;5.96;100.00;98203.81;4994936;28;20045;-79
2021/06/01 01:58:52;;;;;;;10.07;6.78;;;;;;;6.03;100.00;98207.03;4996675;28;20061;-78
2021/06/01 02:01:22;;;;;;;14.82;6.97;;;;;;;6.02;100.00;98218.06;4997025;28;20053;-78
2021/06/01 02:03:51;;;;;;;10.98;7.00;;;;;;;6.01;100.00;98209.19;4996324;28;20065;-79
2021/06/01 02:06:18;;;;;;;10.45;6.75;;;;;;;5.96;100.00;98211.88;4995537;28;20120;-79
2021/06/01 02:08:44;;;;;;;17.77;6.85;;;;;;;6.04;100.00;98205.94;4994898;28;20074;-77
2021/06/01 02:11:11;;;;;;;13.63;6.70;;;;;;;6.06;100.00;98211.06;4996921;28;20046;-78
2021/06/01 02:13:47;;;;;;;12.70;7.60;;;;;;;5.99;100.00;98205.97;4995177;28;20049;-79
2021/06/01 02:16:13;;;;;;;12.68;7.22;;;;;;;6.05;100.00;98201.38;4995996;28;20046;-79
2021/06/01 02:18:40;;;;;;;11.65;6.70;;;;;;;6.03;100.00;98190.94;4996742;28;20043;-79
2021/06/01 02:21:22;;;;;;;11.43;6.70;;;;;;;6.06;100.00;98203.00;4996584;28;20050;-78
2021/06/01 02:23:59;;;;;;;10.48;6.43;;;;;;;5.92;100.00;98193.88;4994180;28;20125;-78
2021/06/01 02:26:35;;;;;;;11.55;6.57;;;;;;;5.69;100.00;98197.91;4994870;28;20042;-79
2021/06/01 02:29:23;;;;;;;12.05;6.25;;;;;;;5.82;100.00;98205.44;4996300;28;20116;-78
2021/06/01 02:31:52;;;;;;;10.95;6.60;;;;;;;5.72;100.00;98193.88;4995106;28;20038;-79
2021/06/01 02:34:21;;;;;;;10.38;6.85;;;;;;;5.66;100.00;98201.13;4992258;28;20056;-79
2021/06/01 02:36:54;;;;;;;11.18;6.13;;;;;;;5.52;100.00;98186.66;4992912;28;20046;-77
2021/06/01 02:39:22;;;;;;;12.85;6.80;;;;;;;5.45;100.00;98189.56;4994382;28;20686;-78
2021/06/01 02:41:50;;;;;;;13.50;6.90;;;;;;;5.55;100.00;98192.25;4994946;28;20062;-78
2021/06/01 02:44:17;;;;;;;11.05;7.07;;;;;;;5.51;100.00;98195.75;5005594;28;20054;-77
2021/06/01 02:46:46;;;;;;;12.95;6.95;;;;;;;5.55;100.00;98194.94;5009293;28;20046;-77
2021/06/01 02:49:16;;;;;;;10.25;6.82;;;;;;;5.45;100.00;98199.50;5011281;28;20037;-78
2021/06/01 02:51:43;;;;;;;9.70;7.10;;;;;;;5.45;100.00;98199.50;5010099;28;20430;-78
2021/06/01 02:54:10;;;;;;;11.02;6.28;;;;;;;5.32;100.00;98186.59;5007439;28;20066;-77
2021/06/01 02:56:38;;;;;;;12.77;6.63;;;;;;;5.38;100.00;98188.22;5016348;28;20058;-78
2021/06/01 02:59:07;;;;;;;10.00;6.82;;;;;;;5.40;100.00;98192.25;5004499;28;20041;-76
2021/06/01 03:01:34;;;;;;;16.30;6.72;;;;;;;5.38;100.00;98191.72;4997989;28;20588;-79
2021/06/01 03:04:01;;;;;;;9.02;6.35;;;;;;;5.39;100.00;98185.31;4995671;28;20474;-79
2021/06/01 03:06:30;;;;;;;10.52;7.10;;;;;;;5.43;100.00;98190.91;4998733;28;20053;-78
2021/06/01 03:08:56;;;;;;;11.55;7.65;;;;;;;5.41;100.00;98183.16;4999667;28;20463;-78
2021/06/01 03:11:23;;;;;;;12.10;6.97;;;;;;;5.47;100.00;98182.06;4998035;28;20178;-78
2021/06/01 03:13:52;;;;;;;16.23;6.78;;;;;;;5.42;100.00;98181.28;4997697;28;20485;-78
2021/06/01 03:16:21;;;;;;;13.00;6.70;;;;;;;5.56;100.00;98185.03;4980681;28;20054;-78
2021/06/01 03:18:48;;;;;;;11.07;6.82;;;;;;;5.54;100.00;98174.56;4998240;28;20469;-78
2021/06/01 03:21:15;;;;;;;10.27;6.30;;;;;;;5.60;100.00;98189.56;4997974;28;20050;-78
2021/06/01 03:23:43;;;;;;;10.00;6.40;;;;;;;5.53;100.00;98174.81;4996318;28;20050;-78
2021/06/01 03:26:09;;;;;;;10.43;6.45;;;;;;;5.53;100.00;98178.31;4996059;28;20077;-77
2021/06/01 03:28:36;;;;;;;8.63;5.28;;;;;;;5.57;100.00;98181.28;4997104;28;20481;-78
2021/06/01 03:31:03;;;;;;;8.80;5.07;;;;;;;5.58;100.00;98182.88;4995680;28;20038;-78
2021/06/01 03:33:30;;;;;;;7.75;4.50;;;;;;;5.55;100.00;98181.53;4996742;28;20101;-76
2021/06/01 03:35:57;;;;;;;6.35;4.80;;;;;;;5.59;100.00;98190.66;4998064;28;20047;-76
2021/06/01 03:38:24;;;;;;;8.40;5.60;;;;;;;5.61;100.00;98180.44;5000266;28;20057;-77
2021/06/01 03:40:52;;;;;;;12.35;5.10;;;;;;;5.63;100.00;98177.50;4997268;28;20097;-77
2021/06/01 03:43:19;;;;;;;8.57;5.85;;;;;;;5.61;100.00;98176.97;5002214;28;20042;-77
2021/06/01 03:45:46;;;;;;;7.97;4.95;;;;;;;5.57;100.00;98179.38;4998888;28;20545;-77
2021/06/01 03:48:12;;;;;;;10.68;5.43;;;;;;;5.54;100.00;98184.50;4998042;28;20149;-78
2021/06/01 03:50:39;;;;;;;8.65;5.60;;;;;;;5.46;100.00;98183.16;4997369;28;20070;-77
2021/06/01 03:53:06;;;;;;;11.45;6.35;;;;;;;5.52;100.00;98184.75;4999028;28;20060;-79
2021/06/01 03:55:32;;;;;;;15.75;7.07;;;;;;;5.52;100.00;98189.31;4997057;28;20069;-77
2021/06/01 03:57:59;;;;;;;13.43;7.22;;;;;;;5.46;100.00;98191.19;4998805;28;20046;-77
2021/06/01 04:00:31;;;;;;;13.05;7.70;;;;;;;5.51;100.00;98193.06;4998496;28;20042;-79
2021/06/01 04:02:58;;;;;;;11.13;7.78;;;;;;;5.69;100.00;98192.53;4997292;28;20584;-77
2021/06/01 04:05:26;;;;;;;11.07;7.22;;;;;;;5.77;100.00;98178.56;5007421;28;20038;-78
2021/06/01 04:07:53;;;;;;;13.20;7.45;;;;;;;5.92;100.00;98175.06;5006839;28;20062;-78
2021/06/01 04:10:20;;;;;;;19.73;7.40;;;;;;;6.01;100.00;98182.31;4999608;28;20042;-78
2021/06/01 04:12:47;;;;;;;11.95;6.90;;;;;;;6.10;100.00;98175.31;4999686;28;20038;-78
2021/06/01 04:15:15;;;;;;;14.07;7.35;;;;;;;6.20;100.00;98166.41;4999253;28;20101;-80
2021/06/01 04:17:42;;;;;;;9.80;6.53;;;;;;;6.32;100.00;98172.31;4999700;28;20120;-79
2021/06/01 04:20:08;;;;;;;15.73;6.57;;;;;;;6.38;100.00;98179.25;4999034;28;20046;-79
2021/06/01 04:22:35;;;;;;;12.35;6.85;;;;;;;6.42;100.00;98172.25;4998657;28;20654;-80
2021/06/01 04:25:03;;;;;;;12.70;6.95;;;;;;;6.48;100.00;98175.75;4999492;28;20104;-78
2021/06/01 04:27:30;;;;;;;12.02;7.15;;;;;;;6.58;100.00;98170.31;4994573;28;20038;-78
2021/06/01 04:29:57;;;;;;;12.23;6.88;;;;;;;6.68;100.00;98165.69;4995970;28;20427;-79
2021/06/01 04:32:23;;;;;;;11.40;7.05;;;;;;;6.77;100.00;98173.97;5000671;28;20045;-80
2021/06/01 04:34:50;;;;;;;14.02;7.65;;;;;;;6.84;100.00;98171.78;4998628;28;20135;-79
2021/06/01 04:37:16;;;;;;;12.07;7.18;;;;;;;6.92;100.00;98179.28;5000712;28;20046;-79
2021/06/01 04:39:43;;;;;;;12.18;8.23;;;;;;;7.03;100.00;98169.25;5001248;28;20069;-79
2021/06/01 04:42:10;;;;;;;11.88;8.27;;;;;;;7.12;100.00;98170.28;5000485;28;20038;-77
2021/06/01 04:44:37;;;;;;;14.25;7.60;;;;;;;7.15;100.00;98170.53;4999935;28;20674;-79
2021/06/01 04:47:04;;;;;;;15.18;8.32;;;;;;;7.29;100.00;98174.22;4995914;28;20057;-79
2021/06/01 04:49:31;;;;;;;15.13;8.25;;;;;;;7.41;100.00;98182.72;5002039;28;20045;-79
2021/06/01 04:51:58;;;;;;;15.32;8.23;;;;;;;7.51;100.00;98173.75;4996441;28;20100;-78
2021/06/01 04:54:24;;;;;;;14.43;7.82;;;;;;;7.59;100.00;98181.25;5000127;28;20053;-79
2021/06/01 04:56:51;;;;;;;15.88;8.00;;;;;;;7.72;100.00;98171.69;4997469;28;20053;-78
2021/06/01 04:59:17;;;;;;;18.90;8.43;;;;;;;7.82;100.00;98180.50;5001098;28;20042;-78
2021/06/01 05:01:44;;;;;;;14.95;8.27;;;;;;;7.97;100.00;98179.56;5000466;28;20057;-78
2021/06/01 05:04:13;;;;;;;12.73;7.88;;;;;;;8.08;100.00;98179.16;5001237;28;20042;-79
2021/06/01 05:06:40;;;;;;;13.10;8.60;;;;;;;8.19;100.00;98169.09;4985050;28;20050;-81
2021/06/01 05:09:07;;;;;;;16.58;9.38;;;;;;;8.27;100.00;98179.28;4999920;28;20536;-79
2021/06/01 05:11:34;;;;;;;13.73;8.50;;;;;;;8.36;100.00;98174.84;4986251;28;20494;-78
2021/06/01 05:14:01;;;;;;;14.20;8.23;;;;;;;8.64;100.00;98184.00;4982659;28;20038;-79
2021/06/01 05:16:28;;;;;;;17.50;8.25;;;;;;;8.80;100.00;98190.00;4998734;28;20042;-79
2021/06/01 05:18:54;;;;;;;14.90;8.43;;;;;;;8.92;100.00;98188.50;5002279;28;20046;-80
2021/06/01 05:21:21;;;;;;;15.60;7.90;;;;;;;9.04;100.00;98186.16;5020405;28;20046;-79
2021/06/01 05:23:48;;;;;;;12.63;7.88;;;;;;;9.18;100.00;98191.63;5006629;28;20102;-78
2021/06/01 05:26:15;;;;;;;13.98;7.85;;;;;;;9.30;100.00;98195.50;5008332;28;20054;-78
2021/06/01 05:28:41;;;;;;;13.40;7.50;;;;;;;9.44;100.00;98192.06;5008418;28;20042;-78
2021/06/01 05:33:44;;;;;;;11.05;7.55;;;;;;;9.71;100.00;98184.88;5012756;28;20062;-78
2021/06/01 05:36:13;;;;;;;11.30;7.22;;;;;;;9.88;100.00;98184.31;5003024;28;20264;-80
2021/06/01 05:38:40;;;;;;;13.45;7.85;;;;;;;10.02;100.00;98187.84;5009178;28;20074;-78
2021/06/01 05:41:09;;;;;;;12.20;7.55;;;;;;;10.23;100.00;98177.50;5011650;28;20038;-78
2021/06/01 05:43:37;;;;;;;13.65;7.95;;;;;;;10.41;100.00;98177.41;5011258;28;20042;-79
2021/06/01 05:46:05;;;;;;;18.63;7.80;;;;;;;10.60;100.00;98178.13;5010232;28;20154;-78
2021/06/01 05:48:31;;;;;;;14.73;8.00;;;;;;;10.80;100.00;98185.03;5013449;28;20073;-78
2021/06/01 05:50:59;;;;;;;12.23;7.70;;;;;;;11.00;100.00;98181.06;5013442;28;20038;-78
2021/06/01 05:53:27;;;;;;;16.90;7.32;;;;;;;11.18;100.00;98180.94;5009771;28;20129;-79
2021/06/01 05:55:55;;;;;;;17.38;7.40;;;;;;;11.40;100.00;98185.59;5002924;28;20188;-81
2021/06/01 05:58:22;;;;;;;14.52;7.43;;;;;;;11.60;100.00;98184.31;5003218;28;20100;-78
2021/06/01 06:00:50;;;;;;;15.00;7.75;;;;;;;11.86;100.00;98175.28;5002118;28;20050;-78
2021/06/01 06:03:17;;;;;;;11.93;7.47;;;;;;;12.04;100.00;98176.19;5002396;28;20038;-78
2021/06/01 06:05:44;;;;;;;12.73;6.65;;;;;;;12.26;100.00;98176.13;5004119;28;20046;-80
2021/06/01 06:08:13;;;;;;;10.38;6.55;;;;;;;12.49;100.00;98166.03;5004815;28;20280;-78
2021/06/01 06:10:42;;;;;;;13.48;6.57;;;;;;;12.71;100.00;98179.53;5005539;28;20046;-79
2021/06/01 06:13:10;;;;;;;11.32;6.53;;;;;;;12.88;100.00;98170.59;5001873;28;20066;-79
2021/06/01 06:15:38;;;;;;;11.02;6.40;;;;;;;13.07;100.00;98169.25;4998260;28;20046;-79
2021/06/01 06:18:18;;;;;;;13.40;6.65;;;;;;;13.33;100.00;98171.19;4998068;28;20054;-78
2021/06/01 06:20:45;;;;;;;11.00;6.40;;;;;;;13.53;100.00;98170.53;5000800;28;20438;-78
2021/06/01 06:23:12;;;;;;;11.65;6.82;;;;;;;13.71;100.00;98169.41;5001342;28;20058;-78
2021/06/01 06:25:39;;;;;;;12.48;5.88;;;;;;;13.87;100.00;98172.44;5000187;28;20129;-79
2021/06/01 06:28:05;;;;;;;12.05;6.22;;;;;;;14.00;100.00;98160.56;5000408;28;20489;-79
2021/06/01 06:30:32;;;;;;;11.45;5.82;;;;;;;14.15;100.00;98166.28;5002750;28;20109;-79
2021/06/01 06:32:58;;;;;;;7.68;4.90;;;;;;;14.35;100.00;98160.16;4998353;28;20050;-78
2021/06/01 06:35:25;;;;;;;9.63;4.85;;;;;;;14.54;100.00;98162.50;4998160;28;20046;-79
2021/06/01 06:37:51;;;;;;;10.43;4.70;;;;;;;14.66;100.00;98161.81;4998927;28;20494;-79
2021/06/01 06:40:19;;;;;;;12.77;5.40;;;;;;;14.72;100.00;98157.75;4998068;28;20048;-80
2021/06/01 06:42:48;;;;;;;12.68;5.20;;;;;;;14.83;100.00;98151.59;5002288;28;20058;-80
2021/06/01 06:45:16;;;;;;;20.77;5.57;;;;;;;14.75;100.00;98149.72;5000893;28;20050;-78
2021/06/01 06:50:18;;;;;;;19.08;4.85;;;;;;;15.01;100.00;98146.03;5000564;28;20701;-80
2021/06/01 06:52:46;;;;;;;15.95;4.63;;;;;;;15.21;100.00;98156.16;5001564;28;20038;-80
2021/06/01 06:55:17;;;;;;;18.40;4.68;;;;;;;15.35;100.00;98156.72;4995354;28;20182;-78
2021/06/01 06:57:43;;;;;;;19.73;4.03;;;;;;;15.48;100.00;98150.22;4994874;28;20042;-81
2021/06/01 07:00:16;;;;;;;27.63;4.97;;;;;;;15.52;100.00;98157.38;4999331;28;20245;-79
2021/06/01 07:02:44;;;;;;;15.88;3.95;;;;;;;15.59;100.00;98146.72;4999807;28;20057;-79
2021/06/01 07:05:13;;;;;;;15.32;3.80;;;;;;;15.76;100.00;98150.44;4998600;28;20417;-79
2021/06/01 07:07:40;;;;;;;8.05;3.58;;;;;;;15.96;100.00;98157.78;5001954;28;20106;-79
2021/06/01 07:10:10;;;;;;;10.65;4.40;;;;;;;16.13;100.00;98147.47;5002340;28;20069;-80
2021/06/01 07:12:37;;;;;;;12.73;3.38;;;;;;;16.23;100.00;98155.22;5003316;28;20050;-79
2021/06/01 07:15:11;;;;;;;9.45;3.40;;;;;;;16.38;100.00;98150.25;5001073;28;20069;-79
2021/06/01 07:17:43;;;;;;;15.57;4.10;;;;;;;16.53;100.00;98147.69;4997368;28;20070;-79
2021/06/01 07:20:12;;;;;;;6.55;3.60;;;;;;;16.49;100.00;98143.22;5000075;28;20047;-79
2021/06/01 07:22:39;;;;;;;11.18;2.90;;;;;;;16.45;100.00;98145.00;5015220;28;20494;-79
2021/06/01 07:25:07;;;;;;;9.05;3.70;;;;;;;16.52;100.00;98145.25;5000010;28;20047;-79
2021/06/01 07:27:33;;;;;;;9.13;3.45;;;;;;;16.61;100.00;98149.50;4998543;28;20528;-80
2021/06/01 07:30:00;;;;;;;8.30;3.63;;;;;;;16.77;100.00;98138.69;4997543;28;20048;-78
2021/06/01 07:32:27;;;;;;;9.43;3.35;;;;;;;16.89;100.00;98137.88;4999122;28;20054;-77
2021/06/01 07:34:53;;;;;;;13.45;3.65;;;;;;;17.06;100.00;98141.16;5000213;28;20042;-79
2021/06/01 07:37:20;;;;;;;9.63;3.50;;;;;;;17.24;100.00;98128.78;5022721;23;20104;-80
2021/06/01 07:39:46;;;;;;;5.65;3.40;;;;;;;17.53;99.44;98108.53;5014300;28;20049;-81
2021/06/01 07:42:13;;;;;;;8.10;3.20;;;;;;;18.09;80.20;98144.13;5014454;28;20670;-79
2021/06/01 07:44:40;;;;;;;9.10;3.30;;;;;;;18.53;76.38;98145.69;5014038;28;20406;-80
2021/06/01 07:47:08;;;;;;;6.80;2.83;;;;;;;18.53;76.38;98145.69;5013929;28;20109;-80
2021/06/01 07:49:35;;;;;;;6.15;3.20;;;;;;;19.72;59.68;98135.84;5014638;28;20038;-82
2021/06/01 07:52:03;;;;;;;7.28;3.10;;;;;;;19.34;64.19;98144.84;4999109;28;20038;-81
2021/06/01 07:54:32;;;;;;;6.53;3.20;;;;;;;19.18;65.12;98141.34;5016399;28;20045;-80
2021/06/01 07:57:01;;;;;;;6.13;2.13;;;;;;;18.76;58.28;98123.91;5017736;28;20049;-80
2021/06/01 07:59:30;;;;;;;4.88;2.00;;;;;;;18.77;54.33;98140.00;4999526;28;20057;-82
2021/06/01 08:01:56;;;;;;;3.67;2.03;;;;;;;18.63;53.43;98150.66;5017409;28;20482;-80
2021/06/01 08:04:23;;;;;;;6.50;1.83;;;;;;;18.55;52.76;98149.69;5016594;28;20050;-82
2021/06/01 08:06:50;;;;;;;7.72;2.10;;;;;;;18.66;51.50;98147.19;5016761;28;20057;-81
2021/06/01 08:09:18;;;;;;;5.70;2.22;;;;;;;18.52;55.21;98150.38;5017216;28;20049;-80
2021/06/01 08:11:45;;;;;;;6.47;2.63;;;;;;;18.42;56.15;98148.16;5017526;28;20046;-80
2021/06/01 08:14:12;;;;;;;4.65;2.40;;;;;;;18.67;56.19;98151.53;5015190;28;20414;-81
2021/06/01 08:16:41;;;;;;;7.65;2.88;;;;;;;18.55;61.31;98152.44;5016684;28;20564;-79
2021/06/01 08:19:14;;;;;;;6.10;2.95;;;;;;;18.69;62.33;98140.97;5016613;28;20100;-80
2021/06/01 08:24:27;;;;;;;4.53;2.97;;;;;;;19.01;64.75;98131.56;5017042;28;20569;-81
2021/06/01 08:26:53;;;;;;;6.90;3.10;;;;;;;18.93;75.71;98126.25;4999777;28;20041;-82
2021/06/01 08:29:20;;;;;;;4.93;2.83;;;;;;;19.27;70.95;98125.47;5016441;28;20046;-82
2021/06/01 08:31:47;;;;;;;7.28;3.28;;;;;;;19.59;77.70;98123.44;5015418;28;20054;-81
2021/06/01 08:34:17;;;;;;;10.38;3.33;;;;;;;19.76;69.62;98122.97;5016485;28;20048;-80
2021/06/01 08:36:44;;;;;;;6.93;3.13;;;;;;;19.78;68.16;98117.91;5016886;28;20049;-82
2021/06/01 08:39:12;;;;;;;5.63;2.92;;;;;;;19.60;60.60;98106.56;5036336;23;21141;-80
2021/06/01 08:41:41;;;;;;;5.30;3.25;;;;;;;20.13;58.81;98115.03;4974307;28;20047;-81
2021/06/01 08:44:12;;;;;;;5.70;3.10;;;;;;;20.13;58.81;98115.03;4974208;28;20125;-80
2021/06/01 08:46:39;;;;;;;5.43;2.90;;;;;;;20.81;60.66;98118.56;4977255;28;20055;-81
2021/06/01 08:49:06;;;;;;;8.80;3.17;;;;;;;20.44;53.36;98117.59;4974573;28;20518;-81
2021/06/01 08:51:33;;;;;;;6.05;3.10;;;;;;;20.70;55.68;98117.59;4990289;23;20045;-79
2021/06/01 08:53:59;;;;;;;5.35;2.80;;;;;;;20.69;56.30;98112.47;4982748;28;20042;-79
2021/06/01 08:56:26;;;;;;;5.10;3.33;;;;;;;20.99;56.79;98122.38;5000044;28;20042;-78
2021/06/01 08:58:53;;;;;;;8.02;3.13;;;;;;;21.24;54.54;98121.97;4999127;28;20133;-80
2021/06/01 09:01:21;;;;;;;7.43;3.60;;;;;;;21.04;54.20;98113.81;4983031;28;20041;-78
2021/06/01 09:03:54;;;;;;;5.95;3.33;;;;;;;20.88;56.82;98115.91;4983037;28;20043;-79
2021/06/01 09:06:37;;;;;;;9.88;3.90;;;;;;;20.57;59.99;98121.72;4965981;28;20305;-80
2021/06/01 09:22:47;;;;;;;7.72;4.30;;;;;;;20.69;60.39;98104.22;4985054;28;20237;-79
2021/06/01 09:25:25;;;;;;;7.15;3.28;;;;;;;21.20;60.64;98099.91;4984150;28;20049;-79
2021/06/01 09:27:53;;;;;;;6.40;3.92;;;;;;;21.06;57.28;98105.19;4980342;28;20101;-81
2021/06/01 09:30:38;;;;;;;11.25;4.07;;;;;;;21.45;57.01;98094.69;4977515;28;20070;-80
2021/06/01 09:33:24;;;;;;;4.97;3.13;;;;;;;22.11;55.71;98091.16;4960617;28;20082;-80
2021/06/01 09:36:03;;;;;;;7.75;3.92;;;;;;;22.45;53.52;98091.84;4978474;28;20086;-78
2021/06/01 09:38:36;;;;;;;6.82;4.28;;;;;;;22.79;48.75;98082.25;4978630;28;20090;-80
2021/06/01 09:41:13;;;;;;;6.15;3.08;;;;;;;23.26;50.41;98073.88;4980095;28;20047;-80
2021/06/01 09:43:53;;;;;;;9.52;3.42;;;;;;;23.63;46.38;98079.19;4978602;28;20049;-80
2021/06/01 09:46:27;;;;;;;7.57;3.10;;;;;;;23.84;43.96;98079.28;4962036;28;20070;-80
2021/06/01 09:48:56;;;;;;;8.63;3.00;;;;;;;23.92;44.75;98072.56;4978749;28;20052;-80
2021/06/01 09:51:33;;;;;;;6.88;3.40;;;;;;;23.47;45.59;98079.53;4977990;28;20039;-79
2021/06/01 09:54:39;;;;;;;8.48;3.22;;;;;;;23.77;44.43;98070.16;4976249;28;20082;-78
2021/06/01 09:57:20;;;;;;;7.20;3.00;;;;;;;24.05;42.64;98067.47;4962150;28;20450;-80
2021/06/01 10:00:12;;;;;;;5.40;2.92;;;;;;;23.51;41.34;98072.03;4962907;28;20096;-79
2021/06/01 10:02:40;;;;;;;7.20;2.70;;;;;;;24.04;40.85;98063.91;4963778;28;20145;-79
2021/06/01 10:05:12;;;;;;;8.55;2.95;;;;;;;24.72;40.29;98061.97;4986944;28;20094;-79
2021/06/01 10:07:40;;;;;;;5.13;2.67;;;;;;;24.87;40.26;98068.31;4989682;28;20035;-79
2021/06/01 10:10:19;;;;;;;6.10;2.83;;;;;;;24.05;41.46;98059.16;4986998;28;20043;-77
2021/06/01 10:12:51;;;;;;;5.95;3.10;;;;;;;25.00;38.10;98055.63;4988775;28;20074;-78
2021/06/01 10:15:20;;;;;;;6.80;2.50;;;;;;;25.26;37.06;98052.38;4986405;28;20046;-77
2021/06/01 10:18:09;;;;;;;6.65;2.60;;;;;;;26.06;37.77;98046.84;4989282;28;20047;-77
2021/06/01 10:20:38;;;;;;;8.93;2.80;;;;;;;25.77;37.67;98041.47;4962561;29;20039;-78
2021/06/01 10:23:07;;;;;;;5.50;2.55;;;;;;;25.72;38.37;98047.44;4950085;29;20059;-78
2021/06/01 10:25:34;;;;;;;7.07;2.70;;;;;;;24.40;39.35;98039.84;4966803;29;20054;-78
2021/06/01 10:28:04;;;;;;;4.63;2.60;;;;;;;24.70;39.31;98037.44;4966364;29;20047;-78
2021/06/01 10:30:35;;;;;;;6.72;2.80;;;;;;;26.66;39.59;98040.84;4966530;29;20039;-78
2021/06/01 10:33:05;;;;;;;9.02;3.00;;;;;;;27.19;34.99;98035.53;4942686;29;20487;-78
2021/06/01 10:35:43;;;;;;;4.25;2.95;;;;;;;27.05;34.40;98032.91;4944738;29;20106;-79
2021/06/01 10:52:27;;;;;;;7.35;3.42;;;;;;;28.07;32.07;98020.50;4957784;28;20107;-80
2021/06/01 10:55:08;;;;;;;7.60;3.30;;;;;;;28.02;32.49;98007.03;4955438;29;20055;-78
2021/06/01 10:58:01;;;;;;;5.68;2.92;;;;;;;29.40;32.51;98010.94;4941543;29;20051;-80
2021/06/01 11:03:19;;;;;;;6.68;3.00;;;;;;;30.74;31.70;98007.78;4957370;28;20043;-79
2021/06/01 11:05:55;;;;;;;6.25;2.60;;;;;;;31.22;30.46;97998.53;4958985;29;20083;-79
2021/06/01 11:08:47;;;;;;;7.60;2.58;;;;;;;31.70;29.84;98000.31;4957012;29;20102;-78
2021/06/01 11:11:23;;;;;;;6.15;2.92;;;;;;;31.63;28.25;97994.16;4936531;28;20051;-80
2021/06/01 11:13:51;;;;;;;8.00;2.88;;;;;;;31.24;28.51;97984.06;4939212;29;20119;-80
2021/06/01 11:16:18;;;;;;;4.93;3.10;;;;;;;30.80;29.62;97989.25;4941592;29;20047;-79
2021/06/01 11:18:53;;;;;;;10.40;2.60;;;;;;;31.72;28.91;97995.03;4956628;28;20236;-81
2021/06/01 11:35:37;;;;;;;5.15;3.08;;;;;;;28.58;31.62;97971.06;4961324;29;20051;-79
2021/06/01 11:43:23;;;;;;;7.53;2.72;;;;;;;27.65;34.87;97970.97;4959194;28;20044;-79
2021/06/01 11:51:11;;;;;;;7.43;2.92;;;;;;;29.22;31.88;97957.53;4961782;29;20377;-78
2021/06/01 11:53:51;;;;;;;7.63;2.42;;;;;;;30.52;31.26;97959.28;4959936;28;20047;-78
2021/06/01 12:11:18;;;;;;;4.20;2.75;;;;;;;32.80;26.12;97933.03;4959156;28;20125;-78
2021/06/01 12:19:11;;;;;;;6.27;3.00;;;;;;;34.71;25.08;97929.06;4967578;29;20036;-78
2021/06/01 12:21:46;;;;;;;3.30;2.45;;;;;;;30.83;29.36;97931.66;4966335;28;20279;-78
2021/06/01 12:24:18;;;;;;;6.78;3.00;;;;;;;30.68;29.75;97925.69;4967617;29;20043;-78
2021/06/01 12:27:01;;;;;;;8.20;2.97;;;;;;;31.05;29.46;97921.47;4952487;29;20047;-77
2021/06/01 12:32:25;;;;;;;4.82;3.00;;;;;;;28.69;31.18;97921.53;4967986;28;20055;-78
2021/06/01 12:35:07;;;;;;;5.63;2.63;;;;;;;32.01;29.58;97916.53;4930879;29;20070;-79
2021/06/01 13:09:14;;;;;;;5.85;3.00;;;;;;;33.22;27.51;97894.19;4959488;29;20055;-79
2021/06/01 13:12:08;;;;;;;4.25;2.97;;;;;;;34.09;25.92;97891.16;4957406;28;20035;-78
2021/06/01 13:19:16;;;;;;;4.05;2.78;;;;;;;34.53;26.18;97897.31;4960077;29;20051;-79
2021/06/01 13:21:08;;;;;;;12.70;2.97;;;;;;;33.47;27.54;97879.22;4959466;29;20110;-79
2021/06/01 13:38:20;;;;;;;5.80;3.45;;;;;;;31.21;31.76;97878.63;4954843;29;20070;-79
2021/06/01 13:46:50;;;;;;;8.15;3.10;;;;;;;30.73;31.15;97860.06;4955059;29;20412;-78
2021/06/01 13:49:34;;;;;;;6.85;3.33;;;;;;;31.96;30.68;97855.44;4957378;28;20043;-78
2021/06/01 14:00:08;;;;;;;4.70;2.80;;;;;;;33.40;28.47;97855.00;4957562;29;20047;-78
2021/06/01 14:35:51;;;;;;;6.93;2.65;;;;;;;34.01;27.82;97833.66;4955181;29;20054;-77
2021/06/01 14:38:46;;;;;;;7.80;2.88;;;;;;;33.44;28.47;97816.34;4938827;29;20443;-77
2021/06/01 14:55:36;;;;;;;5.95;3.13;;;;;;;32.20;27.33;97805.41;5000291;28;20081;-83
2021/06/01 15:22:42;;;;;;;9.38;2.58;;;;;;;29.87;32.08;97795.75;4996652;28;20483;-83
2021/06/01 15:31:28;;;;;;;7.55;3.13;;;;;;;31.15;30.31;97786.09;5000901;28;20726;-83
2021/06/01 15:49:17;;;;;;;5.05;2.72;;;;;;;31.97;29.93;97773.78;5002317;28;20053;-81
2021/06/01 15:51:57;;;;;;;5.13;2.63;;;;;;;32.26;28.00;97762.38;5017387;28;20445;-81